sensor_id;sensor_type;location;lat;lon;timestamp;P1;durP1;ratioP1;P2;durP2;ratioP2
47289;SDS011;33197;52.524;13.444;2023-10-09T00:01:05;4.10;;;2.50;;
47289;SDS011;33197;52.524;13.444;2023-10-09T00:03:40;3.10;;;2.10;;
47289;SDS011;33197;52.524;13.444;2023-10-09T00:06:11;4.88;;;2.92;;
47289;SDS011;33197;52.524;13.444;2023-10-09T00:08:44;4.47;;;2.50;;
47289;SDS011;33197;52.524;13.444;2023-10-09T00:11:12;5.00;;;2.60;;
47289;SDS011;33197;52.524;13.444;2023-10-09T00:13:47;3.63;;;2.55;;
47289;SDS011;33197;52.524;13.444;2023-10-09T00:16:19;5.38;;;2.33;;
47289;SDS011;33197;52.524;13.444;2023-10-09T00:21:41;5.95;;;2.90;;
47289;SDS011;33197;52.524;13.444;2023-10-09T00:24:08;6.70;;;3.00;;
47289;SDS011;33197;52.524;13.444;2023-10-09T00:26:40;4.15;;;3.08;;
47289;SDS011;33197;52.524;13.444;2023-10-09T00:29:12;3.95;;;2.83;;
47289;SDS011;33197;52.524;13.444;2023-10-09T00:34:40;3.45;;;2.05;;
47289;SDS011;33197;52.524;13.444;2023-10-09T00:37:10;7.05;;;3.13;;
47289;SDS011;33197;52.524;13.444;2023-10-09T00:39:44;6.53;;;2.72;;
47289;SDS011;33197;52.524;13.444;2023-10-09T00:42:11;5.95;;;2.42;;
47289;SDS011;33197;52.524;13.444;2023-10-09T00:44:54;4.75;;;2.88;;
47289;SDS011;33197;52.524;13.444;2023-10-09T00:47:22;11.38;;;2.85;;
47289;SDS011;33197;52.524;13.444;2023-10-09T00:52:28;7.38;;;2.78;;
47289;SDS011;33197;52.524;13.444;2023-10-09T00:55:20;5.30;;;2.85;;
47289;SDS011;33197;52.524;13.444;2023-10-09T00:58:08;5.07;;;2.50;;
47289;SDS011;33197;52.524;13.444;2023-10-09T01:00:39;3.90;;;2.13;;
47289;SDS011;33197;52.524;13.444;2023-10-09T01:03:14;4.60;;;2.63;;
47289;SDS011;33197;52.524;13.444;2023-10-09T01:05:50;6.68;;;3.08;;
47289;SDS011;33197;52.524;13.444;2023-10-09T01:08:39;4.27;;;2.83;;
47289;SDS011;33197;52.524;13.444;2023-10-09T01:11:07;5.65;;;2.85;;
47289;SDS011;33197;52.524;13.444;2023-10-09T01:13:45;3.22;;;2.30;;
47289;SDS011;33197;52.524;13.444;2023-10-09T01:16:17;5.45;;;2.45;;
47289;SDS011;33197;52.524;13.444;2023-10-09T01:18:50;3.38;;;2.22;;
47289;SDS011;33197;52.524;13.444;2023-10-09T01:21:20;4.60;;;3.03;;
47289;SDS011;33197;52.524;13.444;2023-10-09T01:23:51;3.78;;;2.65;;
47289;SDS011;33197;52.524;13.444;2023-10-09T01:26:33;3.13;;;2.10;;
47289;SDS011;33197;52.524;13.444;2023-10-09T01:29:07;5.22;;;2.50;;
47289;SDS011;33197;52.524;13.444;2023-10-09T01:31:46;3.75;;;2.30;;
47289;SDS011;33197;52.524;13.444;2023-10-09T01:34:24;7.15;;;3.00;;
47289;SDS011;33197;52.524;13.444;2023-10-09T01:37:06;4.53;;;2.55;;
47289;SDS011;33197;52.524;13.444;2023-10-09T01:39:49;6.93;;;2.75;;
47289;SDS011;33197;52.524;13.444;2023-10-09T01:42:19;3.90;;;2.35;;
47289;SDS011;33197;52.524;13.444;2023-10-09T01:45:10;4.53;;;3.08;;
47289;SDS011;33197;52.524;13.444;2023-10-09T01:47:43;5.10;;;2.45;;
47289;SDS011;33197;52.524;13.444;2023-10-09T01:50:19;4.88;;;2.95;;
47289;SDS011;33197;52.524;13.444;2023-10-09T01:52:51;6.35;;;2.45;;
47289;SDS011;33197;52.524;13.444;2023-10-09T01:55:19;4.60;;;2.85;;
47289;SDS011;33197;52.524;13.444;2023-10-09T01:58:00;5.80;;;2.95;;
47289;SDS011;33197;52.524;13.444;2023-10-09T02:00:33;3.97;;;2.58;;
47289;SDS011;33197;52.524;13.444;2023-10-09T02:03:09;6.88;;;2.85;;
47289;SDS011;33197;52.524;13.444;2023-10-09T02:05:51;3.67;;;2.63;;
47289;SDS011;33197;52.524;13.444;2023-10-09T02:08:30;5.80;;;2.85;;
47289;SDS011;33197;52.524;13.444;2023-10-09T02:11:01;4.93;;;2.25;;
47289;SDS011;33197;52.524;13.444;2023-10-09T02:13:29;5.22;;;2.70;;
47289;SDS011;33197;52.524;13.444;2023-10-09T02:15:57;4.05;;;2.53;;
47289;SDS011;33197;52.524;13.444;2023-10-09T02:21:22;5.95;;;2.65;;
47289;SDS011;33197;52.524;13.444;2023-10-09T02:24:07;6.22;;;2.85;;
47289;SDS011;33197;52.524;13.444;2023-10-09T02:26:53;6.03;;;2.42;;
47289;SDS011;33197;52.524;13.444;2023-10-09T02:29:20;5.47;;;2.75;;
47289;SDS011;33197;52.524;13.444;2023-10-09T02:31:51;4.88;;;2.42;;
47289;SDS011;33197;52.524;13.444;2023-10-09T02:34:19;4.55;;;2.30;;
47289;SDS011;33197;52.524;13.444;2023-10-09T02:36:48;4.65;;;3.00;;
47289;SDS011;33197;52.524;13.444;2023-10-09T02:39:16;5.45;;;2.35;;
47289;SDS011;33197;52.524;13.444;2023-10-09T02:41:53;5.07;;;2.45;;
47289;SDS011;33197;52.524;13.444;2023-10-09T02:44:35;6.22;;;2.88;;
47289;SDS011;33197;52.524;13.444;2023-10-09T02:47:07;5.57;;;3.13;;
47289;SDS011;33197;52.524;13.444;2023-10-09T02:49:45;6.38;;;2.78;;
47289;SDS011;33197;52.524;13.444;2023-10-09T02:52:15;6.00;;;3.28;;
47289;SDS011;33197;52.524;13.444;2023-10-09T02:54:46;7.85;;;3.65;;
47289;SDS011;33197;52.524;13.444;2023-10-09T02:57:26;10.10;;;3.28;;
47289;SDS011;33197;52.524;13.444;2023-10-09T03:00:03;7.00;;;3.35;;
47289;SDS011;33197;52.524;13.444;2023-10-09T03:02:35;7.75;;;3.35;;
47289;SDS011;33197;52.524;13.444;2023-10-09T03:05:07;5.70;;;2.88;;
47289;SDS011;33197;52.524;13.444;2023-10-09T03:07:39;9.80;;;3.85;;
47289;SDS011;33197;52.524;13.444;2023-10-09T03:10:07;8.05;;;3.22;;
47289;SDS011;33197;52.524;13.444;2023-10-09T03:12:36;8.20;;;3.22;;
47289;SDS011;33197;52.524;13.444;2023-10-09T03:15:06;5.65;;;3.28;;
47289;SDS011;33197;52.524;13.444;2023-10-09T03:17:36;7.03;;;3.10;;
47289;SDS011;33197;52.524;13.444;2023-10-09T03:20:06;8.32;;;3.20;;
47289;SDS011;33197;52.524;13.444;2023-10-09T03:22:40;7.50;;;3.70;;
47289;SDS011;33197;52.524;13.444;2023-10-09T03:25:08;7.28;;;3.28;;
47289;SDS011;33197;52.524;13.444;2023-10-09T03:27:41;5.53;;;2.90;;
47289;SDS011;33197;52.524;13.444;2023-10-09T03:30:15;8.88;;;3.85;;
47289;SDS011;33197;52.524;13.444;2023-10-09T03:32:44;6.50;;;3.17;;
47289;SDS011;33197;52.524;13.444;2023-10-09T03:35:15;6.20;;;3.50;;
47289;SDS011;33197;52.524;13.444;2023-10-09T03:37:55;3.88;;;3.17;;
47289;SDS011;33197;52.524;13.444;2023-10-09T03:40:42;5.93;;;3.45;;
47289;SDS011;33197;52.524;13.444;2023-10-09T03:43:10;4.78;;;3.63;;
47289;SDS011;33197;52.524;13.444;2023-10-09T03:45:38;4.05;;;2.70;;
47289;SDS011;33197;52.524;13.444;2023-10-09T03:48:12;4.60;;;2.75;;
47289;SDS011;33197;52.524;13.444;2023-10-09T03:50:48;7.38;;;3.40;;
47289;SDS011;33197;52.524;13.444;2023-10-09T03:53:15;8.05;;;3.20;;
47289;SDS011;33197;52.524;13.444;2023-10-09T03:55:43;5.55;;;2.95;;
47289;SDS011;33197;52.524;13.444;2023-10-09T03:58:10;6.18;;;3.70;;
47289;SDS011;33197;52.524;13.444;2023-10-09T04:00:42;9.48;;;4.25;;
47289;SDS011;33197;52.524;13.444;2023-10-09T04:03:13;8.05;;;3.53;;
47289;SDS011;33197;52.524;13.444;2023-10-09T04:05:41;7.28;;;3.63;;
47289;SDS011;33197;52.524;13.444;2023-10-09T04:08:12;9.27;;;3.33;;
47289;SDS011;33197;52.524;13.444;2023-10-09T04:10:55;10.88;;;3.47;;
47289;SDS011;33197;52.524;13.444;2023-10-09T04:13:45;6.90;;;3.50;;
47289;SDS011;33197;52.524;13.444;2023-10-09T04:16:13;6.97;;;3.10;;
47289;SDS011;33197;52.524;13.444;2023-10-09T04:19:06;5.63;;;3.47;;
47289;SDS011;33197;52.524;13.444;2023-10-09T04:21:38;12.98;;;3.92;;
47289;SDS011;33197;52.524;13.444;2023-10-09T04:24:08;4.13;;;2.55;;
47289;SDS011;33197;52.524;13.444;2023-10-09T04:26:40;6.00;;;3.33;;
47289;SDS011;33197;52.524;13.444;2023-10-09T04:29:12;6.38;;;3.38;;
47289;SDS011;33197;52.524;13.444;2023-10-09T04:32:06;6.18;;;3.60;;
47289;SDS011;33197;52.524;13.444;2023-10-09T04:34:34;5.25;;;3.50;;
47289;SDS011;33197;52.524;13.444;2023-10-09T04:37:02;9.23;;;3.80;;
47289;SDS011;33197;52.524;13.444;2023-10-09T04:39:41;8.15;;;4.07;;
47289;SDS011;33197;52.524;13.444;2023-10-09T04:42:14;5.47;;;2.80;;
47289;SDS011;33197;52.524;13.444;2023-10-09T04:44:51;7.68;;;3.88;;
47289;SDS011;33197;52.524;13.444;2023-10-09T04:47:28;8.57;;;3.28;;
47289;SDS011;33197;52.524;13.444;2023-10-09T04:52:53;6.60;;;3.75;;
47289;SDS011;33197;52.524;13.444;2023-10-09T04:55:21;5.28;;;3.75;;
47289;SDS011;33197;52.524;13.444;2023-10-09T04:57:51;5.72;;;3.28;;
47289;SDS011;33197;52.524;13.444;2023-10-09T05:00:29;9.55;;;3.75;;
47289;SDS011;33197;52.524;13.444;2023-10-09T05:02:57;5.57;;;3.65;;
47289;SDS011;33197;52.524;13.444;2023-10-09T05:05:37;6.97;;;3.78;;
47289;SDS011;33197;52.524;13.444;2023-10-09T05:10:45;10.05;;;4.22;;
47289;SDS011;33197;52.524;13.444;2023-10-09T05:13:26;8.27;;;3.83;;
47289;SDS011;33197;52.524;13.444;2023-10-09T05:16:13;5.80;;;3.25;;
47289;SDS011;33197;52.524;13.444;2023-10-09T05:18:54;5.22;;;3.35;;
47289;SDS011;33197;52.524;13.444;2023-10-09T05:21:36;5.20;;;3.65;;
47289;SDS011;33197;52.524;13.444;2023-10-09T05:24:12;6.60;;;3.58;;
47289;SDS011;33197;52.524;13.444;2023-10-09T05:26:41;5.90;;;3.83;;
47289;SDS011;33197;52.524;13.444;2023-10-09T05:29:20;6.22;;;3.95;;
47289;SDS011;33197;52.524;13.444;2023-10-09T05:34:43;7.78;;;3.95;;
47289;SDS011;33197;52.524;13.444;2023-10-09T05:40:03;6.97;;;4.03;;
47289;SDS011;33197;52.524;13.444;2023-10-09T05:42:43;6.22;;;4.13;;
47289;SDS011;33197;52.524;13.444;2023-10-09T05:45:12;12.25;;;4.03;;
47289;SDS011;33197;52.524;13.444;2023-10-09T05:47:52;5.88;;;3.42;;
47289;SDS011;33197;52.524;13.444;2023-10-09T05:50:21;5.20;;;3.63;;
47289;SDS011;33197;52.524;13.444;2023-10-09T05:52:54;4.85;;;3.45;;
47289;SDS011;33197;52.524;13.444;2023-10-09T05:55:23;5.10;;;3.47;;
47289;SDS011;33197;52.524;13.444;2023-10-09T05:57:51;7.53;;;3.70;;
47289;SDS011;33197;52.524;13.444;2023-10-09T06:00:22;7.65;;;3.97;;
47289;SDS011;33197;52.524;13.444;2023-10-09T06:03:08;11.20;;;3.85;;
47289;SDS011;33197;52.524;13.444;2023-10-09T06:05:49;5.85;;;3.92;;
47289;SDS011;33197;52.524;13.444;2023-10-09T06:08:37;8.02;;;3.50;;
47289;SDS011;33197;52.524;13.444;2023-10-09T06:11:08;5.72;;;3.63;;
47289;SDS011;33197;52.524;13.444;2023-10-09T06:13:56;6.05;;;3.88;;
47289;SDS011;33197;52.524;13.444;2023-10-09T06:16:51;5.63;;;3.80;;
47289;SDS011;33197;52.524;13.444;2023-10-09T06:19:48;5.63;;;3.85;;
47289;SDS011;33197;52.524;13.444;2023-10-09T06:22:16;7.07;;;3.55;;
47289;SDS011;33197;52.524;13.444;2023-10-09T06:25:02;7.18;;;3.35;;
47289;SDS011;33197;52.524;13.444;2023-10-09T06:27:36;5.82;;;3.90;;
47289;SDS011;33197;52.524;13.444;2023-10-09T06:30:03;6.05;;;3.28;;
47289;SDS011;33197;52.524;13.444;2023-10-09T06:32:40;7.18;;;3.50;;
47289;SDS011;33197;52.524;13.444;2023-10-09T06:35:47;6.28;;;3.75;;
47289;SDS011;33197;52.524;13.444;2023-10-09T06:38:23;5.75;;;3.55;;
47289;SDS011;33197;52.524;13.444;2023-10-09T06:41:00;8.05;;;3.40;;
47289;SDS011;33197;52.524;13.444;2023-10-09T06:43:33;5.72;;;3.55;;
47289;SDS011;33197;52.524;13.444;2023-10-09T06:46:03;6.40;;;3.42;;
47289;SDS011;33197;52.524;13.444;2023-10-09T06:49:09;6.40;;;3.28;;
47289;SDS011;33197;52.524;13.444;2023-10-09T06:51:57;4.35;;;2.70;;
47289;SDS011;33197;52.524;13.444;2023-10-09T06:54:40;6.57;;;3.55;;
47289;SDS011;33197;52.524;13.444;2023-10-09T06:57:17;5.95;;;3.45;;
47289;SDS011;33197;52.524;13.444;2023-10-09T07:00:04;6.60;;;3.53;;
47289;SDS011;33197;52.524;13.444;2023-10-09T07:02:51;9.20;;;3.25;;
47289;SDS011;33197;52.524;13.444;2023-10-09T07:05:20;5.40;;;3.20;;
47289;SDS011;33197;52.524;13.444;2023-10-09T07:07:47;14.63;;;3.70;;
47289;SDS011;33197;52.524;13.444;2023-10-09T07:10:22;8.63;;;3.90;;
47289;SDS011;33197;52.524;13.444;2023-10-09T07:12:55;5.60;;;3.67;;
47289;SDS011;33197;52.524;13.444;2023-10-09T07:15:24;5.55;;;3.88;;
47289;SDS011;33197;52.524;13.444;2023-10-09T07:18:26;13.38;;;5.13;;
47289;SDS011;33197;52.524;13.444;2023-10-09T07:21:14;6.60;;;4.80;;
47289;SDS011;33197;52.524;13.444;2023-10-09T07:23:45;8.38;;;4.70;;
47289;SDS011;33197;52.524;13.444;2023-10-09T07:26:17;7.13;;;4.00;;
47289;SDS011;33197;52.524;13.444;2023-10-09T07:28:50;6.18;;;3.67;;
47289;SDS011;33197;52.524;13.444;2023-10-09T07:31:27;8.25;;;3.85;;
47289;SDS011;33197;52.524;13.444;2023-10-09T07:33:57;7.95;;;4.13;;
47289;SDS011;33197;52.524;13.444;2023-10-09T07:36:24;10.40;;;3.92;;
47289;SDS011;33197;52.524;13.444;2023-10-09T07:39:05;4.60;;;3.20;;
47289;SDS011;33197;52.524;13.444;2023-10-09T07:41:44;5.07;;;3.42;;
47289;SDS011;33197;52.524;13.444;2023-10-09T07:44:22;6.55;;;3.63;;
47289;SDS011;33197;52.524;13.444;2023-10-09T07:47:04;7.22;;;3.60;;
47289;SDS011;33197;52.524;13.444;2023-10-09T07:49:44;7.63;;;3.88;;
47289;SDS011;33197;52.524;13.444;2023-10-09T07:52:21;3.90;;;2.42;;
47289;SDS011;33197;52.524;13.444;2023-10-09T07:54:49;4.22;;;2.60;;
47289;SDS011;33197;52.524;13.444;2023-10-09T07:57:17;8.20;;;3.15;;
47289;SDS011;33197;52.524;13.444;2023-10-09T07:59:44;6.35;;;3.30;;
47289;SDS011;33197;52.524;13.444;2023-10-09T08:02:39;4.80;;;3.20;;
47289;SDS011;33197;52.524;13.444;2023-10-09T08:05:06;9.00;;;3.55;;
47289;SDS011;33197;52.524;13.444;2023-10-09T08:07:48;8.70;;;3.03;;
47289;SDS011;33197;52.524;13.444;2023-10-09T08:10:38;11.45;;;3.78;;
47289;SDS011;33197;52.524;13.444;2023-10-09T08:13:25;5.55;;;3.28;;
47289;SDS011;33197;52.524;13.444;2023-10-09T08:16:11;6.70;;;3.05;;
47289;SDS011;33197;52.524;13.444;2023-10-09T08:18:47;7.22;;;4.03;;
47289;SDS011;33197;52.524;13.444;2023-10-09T08:21:18;10.50;;;3.90;;
47289;SDS011;33197;52.524;13.444;2023-10-09T08:24:09;7.50;;;3.58;;
47289;SDS011;33197;52.524;13.444;2023-10-09T08:26:57;11.10;;;3.88;;
47289;SDS011;33197;52.524;13.444;2023-10-09T08:32:14;7.72;;;4.40;;
47289;SDS011;33197;52.524;13.444;2023-10-09T08:35:11;6.97;;;3.47;;
47289;SDS011;33197;52.524;13.444;2023-10-09T08:37:58;8.85;;;4.13;;
47289;SDS011;33197;52.524;13.444;2023-10-09T08:40:35;9.00;;;4.45;;
47289;SDS011;33197;52.524;13.444;2023-10-09T08:43:10;6.32;;;3.50;;
47289;SDS011;33197;52.524;13.444;2023-10-09T08:45:45;9.77;;;3.63;;
47289;SDS011;33197;52.524;13.444;2023-10-09T08:48:14;7.18;;;3.42;;
47289;SDS011;33197;52.524;13.444;2023-10-09T08:50:43;8.82;;;3.40;;
47289;SDS011;33197;52.524;13.444;2023-10-09T08:53:13;6.93;;;3.10;;
47289;SDS011;33197;52.524;13.444;2023-10-09T08:55:41;5.78;;;2.90;;
47289;SDS011;33197;52.524;13.444;2023-10-09T08:58:09;6.20;;;3.42;;
47289;SDS011;33197;52.524;13.444;2023-10-09T09:00:48;6.90;;;3.80;;
47289;SDS011;33197;52.524;13.444;2023-10-09T09:03:16;4.85;;;3.20;;
47289;SDS011;33197;52.524;13.444;2023-10-09T09:05:45;4.68;;;3.40;;
47289;SDS011;33197;52.524;13.444;2023-10-09T09:08:22;3.60;;;3.30;;
47289;SDS011;33197;52.524;13.444;2023-10-09T09:13:42;9.05;;;3.33;;
47289;SDS011;33197;52.524;13.444;2023-10-09T09:16:34;5.80;;;3.67;;
47289;SDS011;33197;52.524;13.444;2023-10-09T09:19:07;6.40;;;3.60;;
47289;SDS011;33197;52.524;13.444;2023-10-09T09:21:38;9.05;;;4.03;;
47289;SDS011;33197;52.524;13.444;2023-10-09T09:26:44;7.65;;;3.92;;
47289;SDS011;33197;52.524;13.444;2023-10-09T09:32:05;7.03;;;4.00;;
47289;SDS011;33197;52.524;13.444;2023-10-09T09:34:51;7.18;;;3.10;;
47289;SDS011;33197;52.524;13.444;2023-10-09T09:37:25;5.07;;;3.45;;
47289;SDS011;33197;52.524;13.444;2023-10-09T09:39:59;12.88;;;3.90;;
47289;SDS011;33197;52.524;13.444;2023-10-09T09:42:28;4.88;;;3.60;;
47289;SDS011;33197;52.524;13.444;2023-10-09T09:45:00;7.45;;;3.85;;
47289;SDS011;33197;52.524;13.444;2023-10-09T09:47:30;8.55;;;4.28;;
47289;SDS011;33197;52.524;13.444;2023-10-09T09:50:04;6.40;;;4.30;;
47289;SDS011;33197;52.524;13.444;2023-10-09T09:52:38;6.90;;;4.07;;
47289;SDS011;33197;52.524;13.444;2023-10-09T09:55:07;6.10;;;3.63;;
47289;SDS011;33197;52.524;13.444;2023-10-09T09:57:44;6.10;;;3.97;;
47289;SDS011;33197;52.524;13.444;2023-10-09T10:00:13;5.20;;;3.63;;
47289;SDS011;33197;52.524;13.444;2023-10-09T10:03:01;8.65;;;4.10;;
47289;SDS011;33197;52.524;13.444;2023-10-09T10:05:32;6.05;;;4.00;;
47289;SDS011;33197;52.524;13.444;2023-10-09T10:08:00;6.82;;;3.88;;
47289;SDS011;33197;52.524;13.444;2023-10-09T10:10:36;5.57;;;3.78;;
47289;SDS011;33197;52.524;13.444;2023-10-09T10:13:17;6.93;;;4.00;;
47289;SDS011;33197;52.524;13.444;2023-10-09T10:18:24;7.57;;;3.80;;
47289;SDS011;33197;52.524;13.444;2023-10-09T10:23:43;5.25;;;3.50;;
47289;SDS011;33197;52.524;13.444;2023-10-09T10:26:21;8.60;;;3.95;;
47289;SDS011;33197;52.524;13.444;2023-10-09T10:32:02;8.82;;;4.00;;
47289;SDS011;33197;52.524;13.444;2023-10-09T10:37:35;5.00;;;3.07;;
47289;SDS011;33197;52.524;13.444;2023-10-09T10:40:12;6.07;;;4.03;;
47289;SDS011;33197;52.524;13.444;2023-10-09T10:43:02;8.02;;;4.18;;
47289;SDS011;33197;52.524;13.444;2023-10-09T10:46:03;4.13;;;3.17;;
47289;SDS011;33197;52.524;13.444;2023-10-09T10:48:50;5.60;;;3.17;;
47289;SDS011;33197;52.524;13.444;2023-10-09T10:51:26;5.47;;;3.55;;
47289;SDS011;33197;52.524;13.444;2023-10-09T10:54:05;4.93;;;3.55;;
47289;SDS011;33197;52.524;13.444;2023-10-09T10:56:51;5.13;;;3.30;;
47289;SDS011;33197;52.524;13.444;2023-10-09T10:59:19;6.55;;;3.75;;
47289;SDS011;33197;52.524;13.444;2023-10-09T11:01:57;8.30;;;4.53;;
47289;SDS011;33197;52.524;13.444;2023-10-09T11:04:45;6.15;;;3.70;;
47289;SDS011;33197;52.524;13.444;2023-10-09T11:07:21;6.75;;;3.30;;
47289;SDS011;33197;52.524;13.444;2023-10-09T11:09:55;6.80;;;3.60;;
47289;SDS011;33197;52.524;13.444;2023-10-09T11:15:07;7.82;;;4.07;;
47289;SDS011;33197;52.524;13.444;2023-10-09T11:20:26;4.90;;;3.58;;
47289;SDS011;33197;52.524;13.444;2023-10-09T11:22:59;9.55;;;3.88;;
47289;SDS011;33197;52.524;13.444;2023-10-09T11:25:39;4.70;;;3.28;;
47289;SDS011;33197;52.524;13.444;2023-10-09T11:28:18;4.35;;;3.60;;
47289;SDS011;33197;52.524;13.444;2023-10-09T11:31:06;6.53;;;3.92;;
47289;SDS011;33197;52.524;13.444;2023-10-09T11:33:47;4.60;;;3.33;;
47289;SDS011;33197;52.524;13.444;2023-10-09T11:36:17;5.05;;;3.53;;
47289;SDS011;33197;52.524;13.444;2023-10-09T11:38:58;5.45;;;4.45;;
47289;SDS011;33197;52.524;13.444;2023-10-09T11:42:06;6.63;;;4.28;;
47289;SDS011;33197;52.524;13.444;2023-10-09T11:44:34;7.32;;;4.82;;
47289;SDS011;33197;52.524;13.444;2023-10-09T11:47:07;6.30;;;4.60;;
47289;SDS011;33197;52.524;13.444;2023-10-09T11:49:54;6.40;;;4.63;;
47289;SDS011;33197;52.524;13.444;2023-10-09T11:52:29;5.35;;;3.97;;
47289;SDS011;33197;52.524;13.444;2023-10-09T11:57:42;9.02;;;4.28;;
47289;SDS011;33197;52.524;13.444;2023-10-09T12:00:09;8.35;;;4.50;;
47289;SDS011;33197;52.524;13.444;2023-10-09T12:03:03;6.65;;;3.80;;
47289;SDS011;33197;52.524;13.444;2023-10-09T12:05:32;6.25;;;4.10;;
47289;SDS011;33197;52.524;13.444;2023-10-09T12:08:01;7.53;;;4.30;;
47289;SDS011;33197;52.524;13.444;2023-10-09T12:10:29;7.10;;;4.28;;
47289;SDS011;33197;52.524;13.444;2023-10-09T12:12:57;6.50;;;4.30;;
47289;SDS011;33197;52.524;13.444;2023-10-09T12:15:25;8.85;;;4.90;;
47289;SDS011;33197;52.524;13.444;2023-10-09T12:18:07;8.65;;;4.70;;
47289;SDS011;33197;52.524;13.444;2023-10-09T12:20:42;8.70;;;4.70;;
47289;SDS011;33197;52.524;13.444;2023-10-09T12:23:17;5.57;;;4.38;;
47289;SDS011;33197;52.524;13.444;2023-10-09T12:25:49;9.13;;;4.53;;
47289;SDS011;33197;52.524;13.444;2023-10-09T12:28:17;6.03;;;4.30;;
47289;SDS011;33197;52.524;13.444;2023-10-09T12:30:48;4.07;;;3.67;;
47289;SDS011;33197;52.524;13.444;2023-10-09T12:33:19;7.90;;;4.80;;
47289;SDS011;33197;52.524;13.444;2023-10-09T12:35:48;7.28;;;4.25;;
47289;SDS011;33197;52.524;13.444;2023-10-09T12:38:15;5.78;;;3.55;;
47289;SDS011;33197;52.524;13.444;2023-10-09T12:40:47;7.55;;;4.88;;
47289;SDS011;33197;52.524;13.444;2023-10-09T12:43:18;7.05;;;4.85;;
47289;SDS011;33197;52.524;13.444;2023-10-09T12:45:49;9.30;;;4.40;;
47289;SDS011;33197;52.524;13.444;2023-10-09T12:48:17;11.70;;;5.43;;
47289;SDS011;33197;52.524;13.444;2023-10-09T12:50:44;6.53;;;5.65;;
47289;SDS011;33197;52.524;13.444;2023-10-09T12:53:12;8.18;;;6.55;;
47289;SDS011;33197;52.524;13.444;2023-10-09T12:55:45;9.30;;;5.80;;
47289;SDS011;33197;52.524;13.444;2023-10-09T12:58:13;13.50;;;6.50;;
47289;SDS011;33197;52.524;13.444;2023-10-09T13:00:43;8.02;;;6.05;;
47289;SDS011;33197;52.524;13.444;2023-10-09T13:03:12;8.00;;;6.40;;
47289;SDS011;33197;52.524;13.444;2023-10-09T13:05:49;8.48;;;6.75;;
47289;SDS011;33197;52.524;13.444;2023-10-09T13:08:27;10.32;;;6.28;;
47289;SDS011;33197;52.524;13.444;2023-10-09T13:11:02;7.60;;;6.30;;
47289;SDS011;33197;52.524;13.444;2023-10-09T13:13:44;8.75;;;6.38;;
47289;SDS011;33197;52.524;13.444;2023-10-09T13:16:18;8.13;;;6.85;;
47289;SDS011;33197;52.524;13.444;2023-10-09T13:18:52;8.85;;;6.68;;
47289;SDS011;33197;52.524;13.444;2023-10-09T13:23:49;9.05;;;7.25;;
47289;SDS011;33197;52.524;13.444;2023-10-09T13:26:18;8.93;;;7.65;;
47289;SDS011;33197;52.524;13.444;2023-10-09T13:28:48;8.25;;;6.38;;
47289;SDS011;33197;52.524;13.444;2023-10-09T13:31:16;10.45;;;7.57;;
47289;SDS011;33197;52.524;13.444;2023-10-09T13:33:44;10.57;;;7.68;;
47289;SDS011;33197;52.524;13.444;2023-10-09T13:36:12;9.40;;;7.15;;
47289;SDS011;33197;52.524;13.444;2023-10-09T13:38:47;9.23;;;7.22;;
47289;SDS011;33197;52.524;13.444;2023-10-09T13:41:15;10.30;;;7.57;;
47289;SDS011;33197;52.524;13.444;2023-10-09T13:43:44;9.05;;;6.75;;
47289;SDS011;33197;52.524;13.444;2023-10-09T13:46:12;8.38;;;7.25;;
47289;SDS011;33197;52.524;13.444;2023-10-09T13:48:39;9.10;;;6.35;;
47289;SDS011;33197;52.524;13.444;2023-10-09T13:51:08;9.45;;;6.32;;
47289;SDS011;33197;52.524;13.444;2023-10-09T13:53:41;8.45;;;6.60;;
47289;SDS011;33197;52.524;13.444;2023-10-09T13:56:15;10.75;;;7.35;;
47289;SDS011;33197;52.524;13.444;2023-10-09T13:58:47;8.70;;;7.72;;
47289;SDS011;33197;52.524;13.444;2023-10-09T14:01:17;13.35;;;7.45;;
47289;SDS011;33197;52.524;13.444;2023-10-09T14:03:55;8.00;;;7.20;;
47289;SDS011;33197;52.524;13.444;2023-10-09T14:06:26;11.10;;;9.05;;
47289;SDS011;33197;52.524;13.444;2023-10-09T14:08:58;9.15;;;7.55;;
47289;SDS011;33197;52.524;13.444;2023-10-09T14:11:37;11.10;;;7.28;;
47289;SDS011;33197;52.524;13.444;2023-10-09T14:14:11;9.52;;;7.20;;
47289;SDS011;33197;52.524;13.444;2023-10-09T14:16:38;11.98;;;7.60;;
47289;SDS011;33197;52.524;13.444;2023-10-09T14:19:10;11.70;;;8.18;;
47289;SDS011;33197;52.524;13.444;2023-10-09T14:21:40;9.32;;;7.45;;
47289;SDS011;33197;52.524;13.444;2023-10-09T14:24:08;9.40;;;7.88;;
47289;SDS011;33197;52.524;13.444;2023-10-09T14:26:45;8.75;;;7.55;;
47289;SDS011;33197;52.524;13.444;2023-10-09T14:29:14;10.00;;;7.75;;
47289;SDS011;33197;52.524;13.444;2023-10-09T14:31:44;12.00;;;7.38;;
47289;SDS011;33197;52.524;13.444;2023-10-09T14:34:16;20.90;;;7.85;;
47289;SDS011;33197;52.524;13.444;2023-10-09T14:36:43;11.23;;;6.43;;
47289;SDS011;33197;52.524;13.444;2023-10-09T14:39:11;8.32;;;6.93;;
47289;SDS011;33197;52.524;13.444;2023-10-09T14:41:45;9.67;;;7.20;;
47289;SDS011;33197;52.524;13.444;2023-10-09T14:44:13;8.07;;;7.28;;
47289;SDS011;33197;52.524;13.444;2023-10-09T14:46:43;10.18;;;7.10;;
47289;SDS011;33197;52.524;13.444;2023-10-09T14:49:11;10.10;;;7.47;;
47289;SDS011;33197;52.524;13.444;2023-10-09T14:51:43;9.27;;;7.85;;
47289;SDS011;33197;52.524;13.444;2023-10-09T14:54:11;11.48;;;7.65;;
47289;SDS011;33197;52.524;13.444;2023-10-09T14:56:42;10.85;;;7.28;;
47289;SDS011;33197;52.524;13.444;2023-10-09T14:59:09;9.50;;;8.02;;
47289;SDS011;33197;52.524;13.444;2023-10-09T15:01:38;13.23;;;8.32;;
47289;SDS011;33197;52.524;13.444;2023-10-09T15:04:05;10.48;;;7.88;;
47289;SDS011;33197;52.524;13.444;2023-10-09T15:06:34;9.07;;;7.05;;
47289;SDS011;33197;52.524;13.444;2023-10-09T15:09:05;13.52;;;8.48;;
47289;SDS011;33197;52.524;13.444;2023-10-09T15:11:36;11.38;;;8.88;;
47289;SDS011;33197;52.524;13.444;2023-10-09T15:14:05;11.30;;;8.68;;
47289;SDS011;33197;52.524;13.444;2023-10-09T15:16:33;11.27;;;7.82;;
47289;SDS011;33197;52.524;13.444;2023-10-09T15:19:01;10.38;;;7.78;;
47289;SDS011;33197;52.524;13.444;2023-10-09T15:21:30;10.38;;;7.57;;
47289;SDS011;33197;52.524;13.444;2023-10-09T15:23:59;12.20;;;9.30;;
47289;SDS011;33197;52.524;13.444;2023-10-09T15:26:26;10.50;;;8.32;;
47289;SDS011;33197;52.524;13.444;2023-10-09T15:29:02;13.93;;;8.70;;
47289;SDS011;33197;52.524;13.444;2023-10-09T15:31:30;8.93;;;7.95;;
47289;SDS011;33197;52.524;13.444;2023-10-09T15:33:59;10.38;;;8.48;;
47289;SDS011;33197;52.524;13.444;2023-10-09T15:36:27;11.75;;;9.02;;
47289;SDS011;33197;52.524;13.444;2023-10-09T15:38:58;9.95;;;8.23;;
47289;SDS011;33197;52.524;13.444;2023-10-09T15:41:29;13.82;;;8.90;;
47289;SDS011;33197;52.524;13.444;2023-10-09T15:43:57;14.18;;;10.10;;
47289;SDS011;33197;52.524;13.444;2023-10-09T15:46:25;12.23;;;9.52;;
47289;SDS011;33197;52.524;13.444;2023-10-09T15:49:00;14.07;;;8.95;;
47289;SDS011;33197;52.524;13.444;2023-10-09T15:51:28;13.18;;;8.32;;
47289;SDS011;33197;52.524;13.444;2023-10-09T15:53:57;13.55;;;9.23;;
47289;SDS011;33197;52.524;13.444;2023-10-09T15:56:24;16.75;;;10.50;;
47289;SDS011;33197;52.524;13.444;2023-10-09T15:58:51;13.82;;;9.50;;
47289;SDS011;33197;52.524;13.444;2023-10-09T16:01:21;11.25;;;8.60;;
47289;SDS011;33197;52.524;13.444;2023-10-09T16:03:49;13.85;;;8.55;;
47289;SDS011;33197;52.524;13.444;2023-10-09T16:06:17;9.30;;;7.35;;
47289;SDS011;33197;52.524;13.444;2023-10-09T16:08:46;8.85;;;7.72;;
47289;SDS011;33197;52.524;13.444;2023-10-09T16:11:17;8.98;;;7.30;;